Time,TemperatureF,DewpointF,PressureIn,WindDirection,WindDirectionDegrees,WindSpeedMPH,WindSpeedGustMPH,Humidity,HourlyPrecipIn,Conditions,Clouds,dailyrainin,SoftwareType,DateUTC
2013-08-22 00:01:00,72.4,70.2,30.09,North,0,0.0,0.0,93,0.00,,,0.00,WUHU216HW,2013-08-22 04:01:00,
2013-08-22 00:06:00,72.4,70.2,30.09,North,0,0.0,0.0,93,0.00,,,0.00,WUHU216HW,2013-08-22 04:06:00,
2013-08-22 00:11:00,72.2,70.0,30.09,North,0,0.0,0.0,93,0.00,,,0.00,WUHU216HW,2013-08-22 04:11:00,
2013-08-22 00:16:00,72.0,69.8,30.09,North,0,0.0,0.0,93,0.00,,,0.00,WUHU216HW,2013-08-22 04:16:00,
2013-08-22 00:21:00,72.0,70.2,30.09,North,0,0.0,0.0,94,0.00,,,0.00,WUHU216HW,2013-08-22 04:21:00,
2013-08-22 00:26:00,71.8,70.0,30.09,North,0,0.0,0.0,94,0.00,,,0.00,WUHU216HW,2013-08-22 04:26:00,
2013-08-22 00:31:00,72.0,70.2,30.09,North,0,0.0,0.0,94,0.00,,,0.00,WUHU216HW,2013-08-22 04:31:00,
2013-08-22 00:36:00,72.0,70.2,30.09,North,0,0.0,0.0,94,0.00,,,0.00,WUHU216HW,2013-08-22 04:36:00,
2013-08-22 00:41:00,71.8,70.0,30.09,North,0,0.0,0.0,94,0.00,,,0.00,WUHU216HW,2013-08-22 04:41:00,
2013-08-22 00:46:00,72.0,70.2,30.09,North,0,0.0,0.0,94,0.00,,,0.00,WUHU216HW,2013-08-22 04:46:00,
2013-08-22 00:51:00,72.0,70.2,30.09,North,0,0.0,0.0,94,0.00,,,0.00,WUHU216HW,2013-08-22 04:51:00,
2013-08-22 00:56:00,72.0,70.2,30.09,North,0,0.0,0.0,94,0.00,,,0.00,WUHU216HW,2013-08-22 04:56:00,
2013-08-22 01:01:00,72.0,70.2,30.09,North,0,0.0,0.0,94,0.00,,,0.00,WUHU216HW,2013-08-22 05:01:00,
2013-08-22 01:06:00,72.0,70.2,30.09,North,0,0.0,0.0,94,0.00,,,0.00,WUHU216HW,2013-08-22 05:06:00,
2013-08-22 01:11:00,72.0,70.2,30.08,North,0,0.0,0.0,94,0.00,,,0.00,WUHU216HW,2013-08-22 05:11:00,
2013-08-22 01:16:00,71.8,70.0,30.09,North,0,0.0,0.0,94,0.00,,,0.00,WUHU216HW,2013-08-22 05:16:00,
2013-08-22 01:21:00,71.6,69.9,30.08,North,0,0.0,0.0,94,0.00,,,0.00,WUHU216HW,2013-08-22 05:21:00,
2013-08-22 01:26:00,71.8,70.0,30.08,North,0,0.0,0.0,94,0.00,,,0.00,WUHU216HW,2013-08-22 05:26:00,
2013-08-22 01:31:00,71.8,70.0,30.08,North,0,0.0,0.0,94,0.00,,,0.00,WUHU216HW,2013-08-22 05:31:00,
2013-08-22 01:36:00,71.8,70.0,30.08,North,0,0.0,0.0,94,0.00,,,0.00,WUHU216HW,2013-08-22 05:36:00,
2013-08-22 01:41:00,71.6,69.9,30.08,North,0,0.0,0.0,94,0.00,,,0.00,WUHU216HW,2013-08-22 05:41:00,
2013-08-22 01:46:00,71.8,70.0,30.08,North,0,0.0,0.0,94,0.00,,,0.00,WUHU216HW,2013-08-22 05:46:00,
2013-08-22 01:51:00,71.8,70.0,30.08,North,0,0.0,0.0,94,0.00,,,0.00,WUHU216HW,2013-08-22 05:51:00,
2013-08-22 01:56:00,71.8,70.0,30.08,North,0,0.0,0.0,94,0.00,,,0.00,WUHU216HW,2013-08-22 05:56:00,
2013-08-22 02:01:00,71.8,70.0,30.08,North,0,0.0,0.0,94,0.00,,,0.00,WUHU216HW,2013-08-22 06:01:00,
2013-08-22 02:06:00,72.0,70.2,30.09,North,0,0.0,0.0,94,0.00,,,0.00,WUHU216HW,2013-08-22 06:06:00,
2013-08-22 02:11:00,71.8,70.0,30.09,North,0,0.0,0.0,94,0.00,,,0.00,WUHU216HW,2013-08-22 06:11:00,
2013-08-22 02:16:00,72.0,70.2,30.09,North,0,0.0,0.0,94,0.00,,,0.00,WUHU216HW,2013-08-22 06:16:00,
2013-08-22 02:21:00,72.0,70.2,30.08,North,0,0.0,0.0,94,0.00,,,0.00,WUHU216HW,2013-08-22 06:21:00,
2013-08-22 02:26:00,72.4,70.6,30.08,North,0,0.0,0.0,94,0.00,,,0.00,WUHU216HW,2013-08-22 06:26:00,
2013-08-22 02:31:00,73.1,71.3,30.08,North,0,0.0,0.0,94,0.00,,,0.00,WUHU216HW,2013-08-22 06:31:00,
2013-08-22 02:36:00,73.3,71.5,30.08,North,0,0.0,0.0,94,0.00,,,0.00,WUHU216HW,2013-08-22 06:36:00,
2013-08-22 02:41:00,73.4,71.9,30.08,North,0,0.0,0.0,95,0.00,,,0.00,WUHU216HW,2013-08-22 06:41:00,
2013-08-22 02:46:00,73.4,71.7,30.08,North,0,0.0,0.0,94,0.00,,,0.00,WUHU216HW,2013-08-22 06:46:00,
2013-08-22 02:51:00,73.4,71.7,30.08,North,0,0.0,0.0,94,0.00,,,0.00,WUHU216HW,2013-08-22 06:51:00,
2013-08-22 02:56:00,73.3,71.1,30.08,North,0,0.0,0.0,93,0.00,,,0.00,WUHU216HW,2013-08-22 06:56:00,
2013-08-22 03:01:00,72.9,70.7,30.08,North,0,0.0,0.0,93,0.00,,,0.00,WUHU216HW,2013-08-22 07:01:00,
2013-08-22 03:06:00,72.7,70.6,30.07,North,0,0.0,0.0,93,0.00,,,0.00,WUHU216HW,2013-08-22 07:06:00,
2013-08-22 03:11:00,72.5,70.4,30.08,North,0,0.0,0.0,93,0.00,,,0.00,WUHU216HW,2013-08-22 07:11:00,
2013-08-22 03:16:00,72.5,70.4,30.08,North,0,0.0,0.0,93,0.00,,,0.00,WUHU216HW,2013-08-22 07:16:00,
2013-08-22 03:21:00,72.4,70.2,30.08,North,0,0.0,0.0,93,0.00,,,0.00,WUHU216HW,2013-08-22 07:21:00,
2013-08-22 03:26:00,72.2,70.0,30.08,North,0,0.0,0.0,93,0.00,,,0.00,WUHU216HW,2013-08-22 07:26:00,
2013-08-22 03:31:00,72.0,69.8,30.08,North,0,0.0,0.0,93,0.00,,,0.00,WUHU216HW,2013-08-22 07:31:00,
2013-08-22 03:36:00,71.8,69.7,30.08,North,0,0.0,0.0,93,0.00,,,0.00,WUHU216HW,2013-08-22 07:36:00,
2013-08-22 03:41:00,71.8,69.7,30.07,North,0,0.0,0.0,93,0.00,,,0.00,WUHU216HW,2013-08-22 07:41:00,
2013-08-22 03:46:00,72.0,69.8,30.07,North,0,0.0,0.0,93,0.00,,,0.00,WUHU216HW,2013-08-22 07:46:00,
2013-08-22 03:51:00,71.8,69.7,30.07,North,0,0.0,0.0,93,0.00,,,0.00,WUHU216HW,2013-08-22 07:51:00,
2013-08-22 03:56:00,71.8,69.7,30.08,North,0,0.0,0.0,93,0.00,,,0.00,WUHU216HW,2013-08-22 07:56:00,
2013-08-22 04:01:00,71.6,69.5,30.08,North,0,0.0,0.0,93,0.00,,,0.00,WUHU216HW,2013-08-22 08:01:00,
2013-08-22 04:06:00,71.6,69.9,30.08,North,0,0.0,0.0,94,0.00,,,0.00,WUHU216HW,2013-08-22 08:06:00,
2013-08-22 04:11:00,71.6,69.9,30.08,North,0,0.0,0.0,94,0.00,,,0.00,WUHU216HW,2013-08-22 08:11:00,
2013-08-22 04:16:00,71.5,69.7,30.08,North,0,0.0,0.0,94,0.00,,,0.00,WUHU216HW,2013-08-22 08:16:00,
2013-08-22 04:21:00,71.5,69.7,30.08,North,0,0.0,0.0,94,0.00,,,0.00,WUHU216HW,2013-08-22 08:21:00,
2013-08-22 04:26:00,71.3,69.5,30.07,North,0,0.0,0.0,94,0.00,,,0.00,WUHU216HW,2013-08-22 08:26:00,
2013-08-22 04:31:00,71.3,69.5,30.07,North,0,0.0,0.0,94,0.00,,,0.00,WUHU216HW,2013-08-22 08:31:00,
2013-08-22 04:36:00,71.3,69.5,30.07,North,0,0.0,0.0,94,0.00,,,0.00,WUHU216HW,2013-08-22 08:36:00,
2013-08-22 04:41:00,71.3,69.5,30.07,North,0,0.0,0.0,94,0.00,,,0.00,WUHU216HW,2013-08-22 08:41:00,
2013-08-22 04:46:00,71.3,69.5,30.07,North,0,0.0,0.0,94,0.00,,,0.00,WUHU216HW,2013-08-22 08:46:00,
2013-08-22 04:51:00,71.3,69.5,30.07,North,0,0.0,0.0,94,0.00,,,0.00,WUHU216HW,2013-08-22 08:51:00,
2013-08-22 04:56:00,71.1,69.3,30.07,North,0,0.0,0.0,94,0.00,,,0.00,WUHU216HW,2013-08-22 08:56:00,
2013-08-22 05:01:00,71.1,69.3,30.07,North,0,0.0,0.0,94,0.00,,,0.00,WUHU216HW,2013-08-22 09:01:00,
2013-08-22 05:06:00,71.1,69.3,30.07,North,0,0.0,0.0,94,0.00,,,0.00,WUHU216HW,2013-08-22 09:06:00,
2013-08-22 05:11:00,71.1,69.3,30.07,North,0,0.0,0.0,94,0.00,,,0.00,WUHU216HW,2013-08-22 09:11:00,
2013-08-22 05:16:00,70.9,69.1,30.07,North,0,0.0,0.0,94,0.00,,,0.00,WUHU216HW,2013-08-22 09:16:00,
2013-08-22 05:21:00,70.9,69.1,30.07,North,0,0.0,0.0,94,0.00,,,0.00,WUHU216HW,2013-08-22 09:21:00,
2013-08-22 05:26:00,70.9,69.1,30.07,North,0,0.0,0.0,94,0.00,,,0.00,WUHU216HW,2013-08-22 09:26:00,
2013-08-22 05:31:00,70.9,69.1,30.07,North,0,0.0,0.0,94,0.00,,,0.00,WUHU216HW,2013-08-22 09:31:00,
2013-08-22 05:36:00,70.7,69.0,30.07,North,0,0.0,0.0,94,0.00,,,0.00,WUHU216HW,2013-08-22 09:36:00,
2013-08-22 05:41:00,70.7,69.0,30.07,North,0,0.0,0.0,94,0.00,,,0.00,WUHU216HW,2013-08-22 09:41:00,
2013-08-22 05:46:00,70.7,69.0,30.07,North,0,0.0,0.0,94,0.00,,,0.00,WUHU216HW,2013-08-22 09:46:00,
2013-08-22 05:51:00,70.6,68.8,30.07,North,0,0.0,0.0,94,0.00,,,0.00,WUHU216HW,2013-08-22 09:51:00,
2013-08-22 05:56:00,70.6,68.8,30.07,North,0,0.0,0.0,94,0.00,,,0.00,WUHU216HW,2013-08-22 09:56:00,
2013-08-22 06:01:00,70.6,68.8,30.07,North,0,0.0,0.0,94,0.00,,,0.00,WUHU216HW,2013-08-22 10:01:00,
2013-08-22 06:06:00,70.4,68.6,30.07,North,0,0.0,0.0,94,0.00,,,0.00,WUHU216HW,2013-08-22 10:06:00,
2013-08-22 06:11:00,70.4,68.6,30.07,North,0,0.0,0.0,94,0.00,,,0.00,WUHU216HW,2013-08-22 10:11:00,
2013-08-22 06:16:00,70.4,68.6,30.07,North,0,0.0,0.0,94,0.00,,,0.00,WUHU216HW,2013-08-22 10:16:00,
2013-08-22 06:21:00,70.2,68.4,30.07,North,0,0.0,0.0,94,0.00,,,0.00,WUHU216HW,2013-08-22 10:21:00,
2013-08-22 06:26:00,70.0,68.2,30.07,North,0,0.0,0.0,94,0.00,,,0.00,WUHU216HW,2013-08-22 10:26:00,
2013-08-22 06:31:00,69.8,68.1,30.07,North,0,0.0,0.0,94,0.00,,,0.00,WUHU216HW,2013-08-22 10:31:00,
2013-08-22 06:36:00,69.8,68.1,30.07,North,0,0.0,0.0,94,0.00,,,0.00,WUHU216HW,2013-08-22 10:36:00,
2013-08-22 06:41:00,69.8,68.1,30.08,North,0,0.0,0.0,94,0.00,,,0.00,WUHU216HW,2013-08-22 10:41:00,
2013-08-22 06:46:00,69.8,68.1,30.08,North,0,0.0,0.0,94,0.00,,,0.00,WUHU216HW,2013-08-22 10:46:00,
2013-08-22 06:49:00,69.8,68.1,30.08,North,0,0.0,0.0,94,0.00,,,0.00,WUHU216HW,2013-08-22 10:49:00,
2013-08-22 06:51:00,69.8,68.1,30.08,North,0,0.0,0.0,94,0.00,,,0.00,WUHU216HW,2013-08-22 10:51:00,
2013-08-22 06:52:00,69.8,68.1,30.08,North,0,0.0,0.0,94,0.00,,,0.00,WUHU216HW,2013-08-22 10:52:00,
2013-08-22 06:53:00,69.8,68.1,30.08,North,0,0.0,0.0,94,0.00,,,0.00,WUHU216HW,2013-08-22 10:53:00,
2013-08-22 06:54:00,69.8,68.1,30.08,North,0,0.0,0.0,94,0.00,,,0.00,WUHU216HW,2013-08-22 10:54:00,
2013-08-22 06:55:00,69.8,68.1,30.09,North,0,0.0,0.0,94,0.00,,,0.00,WUHU216HW,2013-08-22 10:55:00,
2013-08-22 06:56:00,69.8,68.1,30.09,North,0,0.0,0.0,94,0.00,,,0.00,WUHU216HW,2013-08-22 10:56:00,
2013-08-22 06:58:00,69.7,67.9,30.09,North,0,0.0,0.0,94,0.00,,,0.00,WUHU216HW,2013-08-22 10:58:00,
2013-08-22 07:00:00,69.7,67.9,30.09,North,0,0.0,0.0,94,0.00,,,0.00,WUHU216HW,2013-08-22 11:00:00,
2013-08-22 07:01:00,69.8,68.1,30.08,North,0,0.0,0.0,94,0.00,,,0.00,WUHU216HW,2013-08-22 11:01:00,
2013-08-22 07:02:00,69.7,67.9,30.09,North,0,0.0,0.0,94,0.00,,,0.00,WUHU216HW,2013-08-22 11:02:00,
2013-08-22 07:03:00,69.8,68.1,30.08,North,0,0.0,0.0,94,0.00,,,0.00,WUHU216HW,2013-08-22 11:03:00,
2013-08-22 07:04:00,69.7,67.9,30.09,North,0,0.0,0.0,94,0.00,,,0.00,WUHU216HW,2013-08-22 11:04:00,
2013-08-22 07:05:00,69.7,67.9,30.08,North,0,0.0,0.0,94,0.00,,,0.00,WUHU216HW,2013-08-22 11:05:00,
2013-08-22 07:06:00,69.8,68.1,30.09,North,0,0.0,0.0,94,0.00,,,0.00,WUHU216HW,2013-08-22 11:06:00,
2013-08-22 07:07:00,69.7,67.9,30.09,North,0,0.0,0.0,94,0.00,,,0.00,WUHU216HW,2013-08-22 11:07:00,
2013-08-22 07:09:00,69.7,67.9,30.09,North,0,0.0,0.0,94,0.00,,,0.00,WUHU216HW,2013-08-22 11:09:00,
2013-08-22 07:10:00,69.7,67.9,30.09,North,0,0.0,0.0,94,0.00,,,0.00,WUHU216HW,2013-08-22 11:10:00,
2013-08-22 07:11:00,69.7,67.9,30.09,North,0,0.0,0.0,94,0.00,,,0.00,WUHU216HW,2013-08-22 11:11:00,
2013-08-22 07:12:00,69.7,67.9,30.09,North,0,0.0,0.0,94,0.00,,,0.00,WUHU216HW,2013-08-22 11:12:00,
2013-08-22 07:13:00,69.7,67.9,30.09,North,0,0.0,0.0,94,0.00,,,0.00,WUHU216HW,2013-08-22 11:13:00,
2013-08-22 07:15:00,69.5,67.7,30.09,North,0,0.0,0.0,94,0.00,,,0.00,WUHU216HW,2013-08-22 11:15:00,
2013-08-22 07:16:00,69.5,67.7,30.09,North,0,0.0,0.0,94,0.00,,,0.00,WUHU216HW,2013-08-22 11:16:00,
2013-08-22 07:17:00,69.5,67.7,30.09,North,0,0.0,0.0,94,0.00,,,0.00,WUHU216HW,2013-08-22 11:17:00,
2013-08-22 07:18:00,69.5,67.7,30.09,North,0,0.0,0.0,94,0.00,,,0.00,WUHU216HW,2013-08-22 11:18:00,
2013-08-22 07:19:00,69.5,67.7,30.09,North,0,0.0,0.0,94,0.00,,,0.00,WUHU216HW,2013-08-22 11:19:00,
2013-08-22 07:20:00,69.5,67.7,30.09,North,0,0.0,0.0,94,0.00,,,0.00,WUHU216HW,2013-08-22 11:20:00,
2013-08-22 07:22:00,69.5,67.7,30.09,North,0,0.0,0.0,94,0.00,,,0.00,WUHU216HW,2013-08-22 11:22:00,
2013-08-22 07:23:00,69.5,67.7,30.09,North,0,0.0,0.0,94,0.00,,,0.00,WUHU216HW,2013-08-22 11:23:00,
2013-08-22 07:24:00,69.5,67.7,30.09,North,0,0.0,0.0,94,0.00,,,0.00,WUHU216HW,2013-08-22 11:24:00,
2013-08-22 07:25:00,69.5,67.7,30.09,North,0,0.0,0.0,94,0.00,,,0.00,WUHU216HW,2013-08-22 11:25:00,
2013-08-22 07:26:00,69.5,67.7,30.09,North,0,0.0,0.0,94,0.00,,,0.00,WUHU216HW,2013-08-22 11:26:00,
2013-08-22 07:27:00,69.5,67.7,30.09,North,0,0.0,0.0,94,0.00,,,0.00,WUHU216HW,2013-08-22 11:27:00,
2013-08-22 07:28:00,69.5,67.7,30.09,North,0,0.0,0.0,94,0.00,,,0.00,WUHU216HW,2013-08-22 11:28:00,
2013-08-22 07:30:00,69.5,67.7,30.09,North,0,0.0,0.0,94,0.00,,,0.00,WUHU216HW,2013-08-22 11:30:00,
2013-08-22 07:31:00,69.5,67.7,30.09,North,0,0.0,0.0,94,0.00,,,0.00,WUHU216HW,2013-08-22 11:31:00,
2013-08-22 07:32:00,69.5,67.7,30.09,North,0,0.0,0.0,94,0.00,,,0.00,WUHU216HW,2013-08-22 11:32:00,
2013-08-22 07:33:00,69.3,67.5,30.09,North,0,0.0,0.0,94,0.00,,,0.00,WUHU216HW,2013-08-22 11:33:00,
2013-08-22 07:34:00,69.3,67.5,30.09,North,0,0.0,0.0,94,0.00,,,0.00,WUHU216HW,2013-08-22 11:34:00,
2013-08-22 07:35:00,69.3,67.5,30.09,North,0,0.0,0.0,94,0.00,,,0.00,WUHU216HW,2013-08-22 11:35:00,
2013-08-22 07:37:00,69.3,67.5,30.09,North,0,0.0,0.0,94,0.00,,,0.00,WUHU216HW,2013-08-22 11:37:00,
2013-08-22 07:38:00,69.3,67.5,30.09,North,0,0.0,0.0,94,0.00,,,0.00,WUHU216HW,2013-08-22 11:38:00,
2013-08-22 07:39:00,69.3,67.5,30.09,North,0,0.0,0.0,94,0.00,,,0.00,WUHU216HW,2013-08-22 11:39:00,
2013-08-22 07:40:00,69.3,67.5,30.09,North,0,0.0,0.0,94,0.00,,,0.00,WUHU216HW,2013-08-22 11:40:00,
2013-08-22 07:41:00,69.3,67.5,30.09,North,0,0.0,0.0,94,0.00,,,0.00,WUHU216HW,2013-08-22 11:41:00,
2013-08-22 07:42:00,69.1,67.3,30.09,North,0,0.0,0.0,94,0.00,,,0.00,WUHU216HW,2013-08-22 11:42:00,
2013-08-22 07:43:00,69.1,67.3,30.09,North,0,0.0,0.0,94,0.00,,,0.00,WUHU216HW,2013-08-22 11:43:00,
2013-08-22 07:45:00,69.1,67.3,30.09,North,0,0.0,0.0,94,0.00,,,0.00,WUHU216HW,2013-08-22 11:45:00,
2013-08-22 07:46:00,69.1,67.3,30.09,North,0,0.0,0.0,94,0.00,,,0.00,WUHU216HW,2013-08-22 11:46:00,
2013-08-22 07:47:00,69.1,67.3,30.09,North,0,0.0,0.0,94,0.00,,,0.00,WUHU216HW,2013-08-22 11:47:00,
2013-08-22 07:48:00,69.1,67.3,30.09,North,0,0.0,0.0,94,0.00,,,0.00,WUHU216HW,2013-08-22 11:48:00,
2013-08-22 07:49:00,69.1,67.3,30.09,North,0,0.0,0.0,94,0.00,,,0.00,WUHU216HW,2013-08-22 11:49:00,
2013-08-22 07:51:00,69.1,67.3,30.09,North,0,0.0,0.0,94,0.00,,,0.00,WUHU216HW,2013-08-22 11:51:00,
2013-08-22 07:52:00,69.1,67.3,30.09,North,0,0.0,0.0,94,0.00,,,0.00,WUHU216HW,2013-08-22 11:52:00,
2013-08-22 07:53:00,69.1,67.3,30.08,North,0,0.0,0.0,94,0.00,,,0.00,WUHU216HW,2013-08-22 11:53:00,
2013-08-22 07:54:00,69.1,67.3,30.09,North,0,0.0,0.0,94,0.00,,,0.00,WUHU216HW,2013-08-22 11:54:00,
2013-08-22 07:55:00,69.1,67.3,30.09,North,0,0.0,0.0,94,0.00,,,0.00,WUHU216HW,2013-08-22 11:55:00,
2013-08-22 07:57:00,69.1,67.3,30.09,North,0,0.0,0.0,94,0.00,,,0.00,WUHU216HW,2013-08-22 11:57:00,
2013-08-22 07:58:00,69.1,67.3,30.09,North,0,0.0,0.0,94,0.00,,,0.00,WUHU216HW,2013-08-22 11:58:00,
2013-08-22 07:59:00,69.1,67.3,30.09,North,0,0.0,0.0,94,0.00,,,0.00,WUHU216HW,2013-08-22 11:59:00,
2013-08-22 08:00:00,69.1,67.3,30.09,North,0,0.0,0.0,94,0.00,,,0.00,WUHU216HW,2013-08-22 12:00:00,
2013-08-22 08:01:00,69.1,67.3,30.09,North,0,0.0,0.0,94,0.00,,,0.00,WUHU216HW,2013-08-22 12:01:00,
2013-08-22 08:03:00,69.3,67.5,30.09,North,0,0.0,0.0,94,0.00,,,0.00,WUHU216HW,2013-08-22 12:03:00,
2013-08-22 08:04:00,69.3,67.5,30.08,North,0,0.0,0.0,94,0.00,,,0.00,WUHU216HW,2013-08-22 12:04:00,
2013-08-22 08:05:00,69.3,67.5,30.09,North,0,0.0,0.0,94,0.00,,,0.00,WUHU216HW,2013-08-22 12:05:00,
2013-08-22 08:06:00,69.3,67.5,30.08,North,0,0.0,0.0,94,0.00,,,0.00,WUHU216HW,2013-08-22 12:06:00,
2013-08-22 08:08:00,69.5,67.7,30.09,North,0,0.0,0.0,94,0.00,,,0.00,WUHU216HW,2013-08-22 12:08:00,
2013-08-22 08:10:00,69.5,67.7,30.09,North,0,0.0,0.0,94,0.00,,,0.00,WUHU216HW,2013-08-22 12:10:00,
2013-08-22 08:11:00,69.5,67.7,30.09,North,0,0.0,0.0,94,0.00,,,0.00,WUHU216HW,2013-08-22 12:11:00,
2013-08-22 08:12:00,69.5,67.7,30.08,North,0,0.0,0.0,94,0.00,,,0.00,WUHU216HW,2013-08-22 12:12:00,
2013-08-22 08:42:00,70.0,68.2,30.09,North,0,0.0,0.0,94,0.00,,,0.00,WUHU216HW,2013-08-22 12:42:00,
2013-08-22 08:47:00,70.4,68.6,30.09,North,0,0.0,0.0,94,0.00,,,0.00,WUHU216HW,2013-08-22 12:47:00,
2013-08-22 08:52:00,70.9,69.1,30.09,North,0,0.0,0.0,94,0.00,,,0.00,WUHU216HW,2013-08-22 12:52:00,
2013-08-22 08:57:00,71.3,69.5,30.09,North,0,0.0,0.0,94,0.00,,,0.00,WUHU216HW,2013-08-22 12:57:00,
2013-08-22 09:00:00,71.5,69.7,30.09,North,0,0.0,0.0,94,0.00,,,0.00,WUHU216HW,2013-08-22 13:00:00,
2013-08-22 09:05:00,71.6,69.9,30.10,North,0,0.0,0.0,94,0.00,,,0.00,WUHU216HW,2013-08-22 13:05:00,
2013-08-22 09:10:00,71.6,69.9,30.10,North,0,0.0,0.0,94,0.00,,,0.00,WUHU216HW,2013-08-22 13:10:00,
2013-08-22 09:15:00,71.6,69.9,30.10,North,0,0.0,0.0,94,0.00,,,0.00,WUHU216HW,2013-08-22 13:15:00,
2013-08-22 09:20:00,71.6,69.9,30.10,North,0,0.0,0.0,94,0.00,,,0.00,WUHU216HW,2013-08-22 13:20:00,
2013-08-22 09:25:00,72.0,70.2,30.10,North,0,0.0,0.0,94,0.00,,,0.00,WUHU216HW,2013-08-22 13:25:00,
2013-08-22 09:30:00,72.2,70.4,30.10,North,0,0.0,0.0,94,0.00,,,0.00,WUHU216HW,2013-08-22 13:30:00,
2013-08-22 09:35:00,72.4,70.6,30.10,North,0,0.0,0.0,94,0.00,,,0.00,WUHU216HW,2013-08-22 13:35:00,
2013-08-22 09:40:00,72.5,70.8,30.10,North,0,0.0,0.0,94,0.00,,,0.00,WUHU216HW,2013-08-22 13:40:00,
2013-08-22 09:45:00,72.9,70.7,30.10,North,0,0.0,0.0,93,0.00,,,0.00,WUHU216HW,2013-08-22 13:45:00,
2013-08-22 09:50:00,73.4,71.7,30.10,North,0,0.0,0.0,94,0.00,,,0.00,WUHU216HW,2013-08-22 13:50:00,
2013-08-22 09:55:00,73.6,71.8,30.09,North,0,0.0,0.0,94,0.00,,,0.00,WUHU216HW,2013-08-22 13:55:00,
2013-08-22 10:00:00,73.8,72.0,30.09,North,0,0.0,0.0,94,0.00,,,0.00,WUHU216HW,2013-08-22 14:00:00,
2013-08-22 10:05:00,73.8,72.0,30.09,North,0,0.0,0.0,94,0.00,,,0.00,WUHU216HW,2013-08-22 14:05:00,
2013-08-22 10:10:00,74.0,72.2,30.09,North,0,0.0,0.0,94,0.00,,,0.00,WUHU216HW,2013-08-22 14:10:00,
2013-08-22 10:15:00,74.3,72.2,30.09,North,0,0.0,0.0,93,0.00,,,0.00,WUHU216HW,2013-08-22 14:15:00,
2013-08-22 10:20:00,74.5,72.4,30.09,North,0,0.0,0.0,93,0.00,,,0.00,WUHU216HW,2013-08-22 14:20:00,
2013-08-22 10:25:00,75.1,72.9,30.09,North,0,0.0,0.0,93,0.00,,,0.00,WUHU216HW,2013-08-22 14:25:00,
2013-08-22 10:30:00,75.2,72.5,30.09,North,0,0.0,0.0,91,0.00,,,0.00,WUHU216HW,2013-08-22 14:30:00,
2013-08-22 10:35:00,75.8,73.4,30.09,North,0,0.0,0.0,92,0.00,,,0.00,WUHU216HW,2013-08-22 14:35:00,
2013-08-22 10:40:00,76.3,73.3,30.09,North,0,0.0,0.0,90,0.00,,,0.00,WUHU216HW,2013-08-22 14:40:00,
2013-08-22 10:45:00,76.7,72.9,30.09,North,0,0.0,0.0,88,0.00,,,0.00,WUHU216HW,2013-08-22 14:45:00,
2013-08-22 10:50:00,77.2,73.4,30.09,North,0,0.0,0.0,88,0.00,,,0.00,WUHU216HW,2013-08-22 14:50:00,
2013-08-22 10:55:00,77.6,73.8,30.09,North,0,0.0,0.0,88,0.00,,,0.00,WUHU216HW,2013-08-22 14:55:00,
2013-08-22 11:00:00,78.1,74.3,30.09,North,0,0.0,0.0,88,0.00,,,0.00,WUHU216HW,2013-08-22 15:00:00,
2013-08-22 11:05:00,78.3,73.4,30.09,North,0,0.0,0.0,85,0.00,,,0.00,WUHU216HW,2013-08-22 15:05:00,
2013-08-22 11:10:00,78.7,73.8,30.09,North,0,0.0,0.0,85,0.00,,,0.00,WUHU216HW,2013-08-22 15:10:00,
2013-08-22 11:15:00,78.8,74.0,30.09,North,0,0.0,0.0,85,0.00,,,0.00,WUHU216HW,2013-08-22 15:15:00,
2013-08-22 11:20:00,79.2,73.6,30.08,North,0,0.0,0.0,83,0.00,,,0.00,WUHU216HW,2013-08-22 15:20:00,
2013-08-22 11:25:00,79.7,74.5,30.08,North,0,0.0,0.0,84,0.00,,,0.00,WUHU216HW,2013-08-22 15:25:00,
2013-08-22 11:30:00,80.1,74.2,30.08,North,0,0.0,0.0,82,0.00,,,0.00,WUHU216HW,2013-08-22 15:30:00,
2013-08-22 11:35:00,79.9,72.9,30.08,North,0,0.0,0.0,79,0.00,,,0.00,WUHU216HW,2013-08-22 15:35:00,
2013-08-22 11:40:00,80.3,74.4,30.08,North,0,0.0,0.0,82,0.00,,,0.00,WUHU216HW,2013-08-22 15:40:00,
2013-08-22 11:45:00,80.1,74.5,30.09,North,0,0.0,0.0,83,0.00,,,0.00,WUHU216HW,2013-08-22 15:45:00,
2013-08-22 11:50:00,79.9,74.4,30.08,North,0,0.0,0.0,83,0.00,,,0.00,WUHU216HW,2013-08-22 15:50:00,
2013-08-22 11:55:00,79.9,73.6,30.08,North,0,0.0,0.0,81,0.00,,,0.00,WUHU216HW,2013-08-22 15:55:00,
2013-08-22 12:00:00,80.8,73.8,30.08,North,0,0.0,0.0,79,0.00,,,0.00,WUHU216HW,2013-08-22 16:00:00,
2013-08-22 12:05:00,81.7,75.8,30.08,North,0,0.0,0.0,82,0.00,,,0.00,WUHU216HW,2013-08-22 16:05:00,
2013-08-22 12:10:00,81.5,74.9,30.08,North,0,0.0,0.0,80,0.00,,,0.00,WUHU216HW,2013-08-22 16:10:00,
2013-08-22 12:15:00,81.0,74.7,30.08,North,0,0.0,0.0,81,0.00,,,0.00,WUHU216HW,2013-08-22 16:15:00,
2013-08-22 12:20:00,80.8,74.5,30.08,North,0,0.0,0.0,81,0.00,,,0.00,WUHU216HW,2013-08-22 16:20:00,
2013-08-22 12:25:00,81.2,73.4,30.08,North,0,0.0,0.0,77,0.00,,,0.00,WUHU216HW,2013-08-22 16:25:00,
2013-08-22 12:30:00,81.7,73.8,30.08,North,0,0.0,0.0,77,0.00,,,0.00,WUHU216HW,2013-08-22 16:30:00,
2013-08-22 12:35:00,81.7,73.8,30.08,North,0,0.0,0.0,77,0.00,,,0.00,WUHU216HW,2013-08-22 16:35:00,
2013-08-22 12:58:00,84.4,75.6,30.07,North,0,0.0,0.0,75,0.00,,,0.00,WUHU216HW,2013-08-22 16:58:00,
2013-08-22 13:03:00,84.8,75.6,30.06,North,0,0.0,0.0,74,0.00,,,0.00,WUHU216HW,2013-08-22 17:03:00,
2013-08-22 13:08:00,84.6,74.2,30.07,North,0,0.0,0.0,71,0.00,,,0.00,WUHU216HW,2013-08-22 17:08:00,
2013-08-22 13:13:00,84.6,74.2,30.06,North,0,0.0,0.0,71,0.00,,,0.00,WUHU216HW,2013-08-22 17:13:00,
2013-08-22 13:18:00,85.0,74.2,30.06,North,0,0.0,0.0,70,0.00,,,0.00,WUHU216HW,2013-08-22 17:18:00,
2013-08-22 13:23:00,85.5,75.1,30.06,North,0,0.0,0.0,71,0.00,,,0.00,WUHU216HW,2013-08-22 17:23:00,
2013-08-22 13:28:00,86.0,73.4,30.05,North,0,0.0,0.0,66,0.00,,,0.00,WUHU216HW,2013-08-22 17:28:00,
2013-08-22 13:33:00,86.4,74.6,30.05,North,0,0.0,0.0,68,0.00,,,0.00,WUHU216HW,2013-08-22 17:33:00,
2013-08-22 13:38:00,85.3,74.9,30.05,North,0,0.0,0.0,71,0.00,,,0.00,WUHU216HW,2013-08-22 17:38:00,
2013-08-22 13:43:00,85.7,75.7,30.04,North,0,0.0,0.0,72,0.00,,,0.00,WUHU216HW,2013-08-22 17:43:00,
2013-08-22 13:48:00,85.5,75.1,30.04,North,0,0.0,0.0,71,0.00,,,0.00,WUHU216HW,2013-08-22 17:48:00,
2013-08-22 13:53:00,85.3,74.5,30.04,North,0,0.0,0.0,70,0.00,,,0.00,WUHU216HW,2013-08-22 17:53:00,
2013-08-22 13:58:00,86.2,75.8,30.04,North,0,0.0,0.0,71,0.00,,,0.00,WUHU216HW,2013-08-22 17:58:00,
2013-08-22 14:03:00,86.4,74.2,30.04,North,0,0.0,0.0,67,0.00,,,0.00,WUHU216HW,2013-08-22 18:03:00,
2013-08-22 14:08:00,86.2,74.0,30.04,North,0,0.0,0.0,67,0.00,,,0.00,WUHU216HW,2013-08-22 18:08:00,
2013-08-22 14:13:00,85.5,74.7,30.03,North,0,0.0,0.0,70,0.00,,,0.00,WUHU216HW,2013-08-22 18:13:00,
2013-08-22 14:18:00,85.0,75.0,30.03,North,0,0.0,0.0,72,0.00,,,0.00,WUHU216HW,2013-08-22 18:18:00,
2013-08-22 14:23:00,84.1,74.4,30.02,North,0,0.0,0.0,73,0.00,,,0.00,WUHU216HW,2013-08-22 18:23:00,
2013-08-22 14:28:00,84.6,74.2,30.02,North,0,0.0,0.0,71,0.00,,,0.00,WUHU216HW,2013-08-22 18:28:00,
2013-08-22 14:33:00,84.6,74.6,30.02,North,0,0.0,0.0,72,0.00,,,0.00,WUHU216HW,2013-08-22 18:33:00,
2013-08-22 14:38:00,85.0,75.3,30.02,North,0,0.0,0.0,73,0.00,,,0.00,WUHU216HW,2013-08-22 18:38:00,
2013-08-22 14:43:00,85.3,74.5,30.02,North,0,0.0,0.0,70,0.00,,,0.00,WUHU216HW,2013-08-22 18:43:00,
2013-08-22 14:48:00,85.7,75.2,30.01,North,0,0.0,0.0,71,0.00,,,0.00,WUHU216HW,2013-08-22 18:48:00,
2013-08-22 14:53:00,84.4,74.4,30.01,North,0,0.0,0.0,72,0.00,,,0.00,WUHU216HW,2013-08-22 18:53:00,
2013-08-22 14:58:00,83.3,74.6,30.01,North,0,0.0,0.0,75,0.00,,,0.00,WUHU216HW,2013-08-22 18:58:00,
2013-08-22 15:03:00,83.2,74.4,30.01,North,0,0.0,0.0,75,0.00,,,0.00,WUHU216HW,2013-08-22 19:03:00,
2013-08-22 15:08:00,83.3,74.2,30.01,North,0,0.0,0.0,74,0.00,,,0.00,WUHU216HW,2013-08-22 19:08:00,
2013-08-22 15:13:00,84.4,74.0,30.01,North,0,0.0,0.0,71,0.00,,,0.00,WUHU216HW,2013-08-22 19:13:00,
2013-08-22 15:18:00,85.0,73.3,30.00,North,0,0.0,0.0,68,0.00,,,0.00,WUHU216HW,2013-08-22 19:18:00,
2013-08-22 15:23:00,85.0,74.2,30.00,North,0,0.0,0.0,70,0.00,,,0.00,WUHU216HW,2013-08-22 19:23:00,
2013-08-22 15:28:00,84.8,74.8,30.00,North,0,0.0,0.0,72,0.00,,,0.00,WUHU216HW,2013-08-22 19:28:00,
2013-08-22 15:33:00,83.9,73.9,30.00,North,0,0.0,0.0,72,0.00,,,0.00,WUHU216HW,2013-08-22 19:33:00,
2013-08-22 15:38:00,83.5,74.4,29.99,North,0,0.0,0.0,74,0.00,,,0.00,WUHU216HW,2013-08-22 19:38:00,
2013-08-22 15:43:00,82.6,74.3,30.00,North,0,0.0,0.0,76,0.00,,,0.00,WUHU216HW,2013-08-22 19:43:00,
2013-08-22 15:48:00,81.9,74.4,30.00,North,0,0.0,0.0,78,0.00,,,0.00,WUHU216HW,2013-08-22 19:48:00,
2013-08-22 15:53:00,81.5,73.7,29.99,North,0,0.0,0.0,77,0.00,,,0.00,WUHU216HW,2013-08-22 19:53:00,
2013-08-22 15:58:00,81.9,74.8,29.99,North,0,0.0,0.0,79,0.00,,,0.00,WUHU216HW,2013-08-22 19:58:00,
2013-08-22 16:03:00,82.6,75.5,29.99,North,0,0.0,0.0,79,0.00,,,0.00,WUHU216HW,2013-08-22 20:03:00,
2013-08-22 16:08:00,82.6,75.5,29.99,North,0,0.0,0.0,79,0.00,,,0.00,WUHU216HW,2013-08-22 20:08:00,
2013-08-22 16:13:00,81.9,74.8,29.99,North,0,0.0,0.0,79,0.00,,,0.00,WUHU216HW,2013-08-22 20:13:00,
2013-08-22 16:18:00,81.2,73.7,29.99,North,0,0.0,0.0,78,0.00,,,0.00,WUHU216HW,2013-08-22 20:18:00,
2013-08-22 16:23:00,80.6,73.2,29.99,North,0,0.0,0.0,78,0.00,,,0.00,WUHU216HW,2013-08-22 20:23:00,
2013-08-22 16:28:00,80.3,73.3,30.00,North,0,0.0,0.0,79,0.00,,,0.00,WUHU216HW,2013-08-22 20:28:00,
2013-08-22 16:33:00,80.3,73.3,30.00,North,0,0.0,0.0,79,0.00,,,0.00,WUHU216HW,2013-08-22 20:33:00,
2013-08-22 16:38:00,79.9,73.6,30.00,North,0,0.0,0.0,81,0.00,,,0.00,WUHU216HW,2013-08-22 20:38:00,
2013-08-22 16:43:00,79.6,73.3,30.00,North,0,0.0,0.0,81,0.00,,,0.00,WUHU216HW,2013-08-22 20:43:00,
2013-08-22 16:48:00,79.2,73.3,30.00,North,0,0.0,0.0,82,0.00,,,0.00,WUHU216HW,2013-08-22 20:48:00,
2013-08-22 16:53:00,78.8,73.6,30.00,North,0,0.0,0.0,84,0.00,,,0.00,WUHU216HW,2013-08-22 20:53:00,
2013-08-22 16:58:00,78.1,72.5,30.01,North,0,0.0,0.0,83,0.00,,,0.00,WUHU216HW,2013-08-22 20:58:00,
2013-08-22 17:03:00,77.4,72.5,30.01,North,0,0.0,0.0,85,0.00,,,0.00,WUHU216HW,2013-08-22 21:03:00,
2013-08-22 17:08:00,76.9,72.4,30.01,North,0,0.0,0.0,86,0.00,,,0.00,WUHU216HW,2013-08-22 21:08:00,
2013-08-22 17:13:00,76.5,72.7,30.01,North,0,0.0,0.0,88,0.00,,,0.00,WUHU216HW,2013-08-22 21:13:00,
2013-08-22 17:18:00,76.7,72.5,30.00,North,0,0.0,0.0,87,0.00,,,0.00,WUHU216HW,2013-08-22 21:18:00,
2013-08-22 17:23:00,76.1,72.4,30.01,North,0,0.0,0.0,88,0.00,,,0.00,WUHU216HW,2013-08-22 21:23:00,
2013-08-22 17:28:00,76.0,72.5,30.01,North,0,0.0,0.0,89,0.00,,,0.00,WUHU216HW,2013-08-22 21:28:00,
2013-08-22 17:33:00,76.0,72.5,30.01,North,0,0.0,0.0,89,0.00,,,0.00,WUHU216HW,2013-08-22 21:33:00,
2013-08-22 17:38:00,75.8,72.4,30.02,North,0,0.0,0.0,89,0.00,,,0.00,WUHU216HW,2013-08-22 21:38:00,
2013-08-22 17:43:00,75.8,72.7,30.01,North,0,0.0,0.0,90,0.00,,,0.00,WUHU216HW,2013-08-22 21:43:00,
2013-08-22 17:48:00,75.4,72.0,30.01,North,0,0.0,0.0,89,0.00,,,0.00,WUHU216HW,2013-08-22 21:48:00,
2013-08-22 17:53:00,74.5,71.1,30.00,North,0,0.0,0.0,89,0.00,,,0.00,WUHU216HW,2013-08-22 21:53:00,
2013-08-22 17:58:00,74.2,70.7,30.00,North,0,0.0,0.0,89,0.00,,,0.00,WUHU216HW,2013-08-22 21:58:00,
2013-08-22 18:03:00,74.2,71.1,30.01,North,0,0.0,0.0,90,0.00,,,0.00,WUHU216HW,2013-08-22 22:03:00,
2013-08-22 18:08:00,74.3,71.3,30.01,North,0,0.0,0.0,90,0.00,,,0.00,WUHU216HW,2013-08-22 22:08:00,
2013-08-22 18:13:00,74.3,70.9,30.01,North,0,0.0,0.0,89,0.00,,,0.00,WUHU216HW,2013-08-22 22:13:00,
2013-08-22 18:18:00,74.5,71.1,30.00,North,0,0.0,0.0,89,0.00,,,0.00,WUHU216HW,2013-08-22 22:18:00,
2013-08-22 18:23:00,74.5,71.1,30.00,North,0,0.0,0.0,89,0.00,,,0.00,WUHU216HW,2013-08-22 22:23:00,
2013-08-22 18:28:00,74.5,71.1,30.00,North,0,0.0,0.0,89,0.00,,,0.00,WUHU216HW,2013-08-22 22:28:00,
2013-08-22 18:33:00,74.5,71.1,30.00,North,0,0.0,0.0,89,0.00,,,0.00,WUHU216HW,2013-08-22 22:33:00,
2013-08-22 18:38:00,74.5,71.1,30.00,North,0,0.0,0.0,89,0.00,,,0.00,WUHU216HW,2013-08-22 22:38:00,
2013-08-22 18:43:00,74.3,70.9,30.00,North,0,0.0,0.0,89,0.00,,,0.00,WUHU216HW,2013-08-22 22:43:00,
2013-08-22 18:48:00,74.0,70.6,30.00,North,0,0.0,0.0,89,0.00,,,0.00,WUHU216HW,2013-08-22 22:48:00,
2013-08-22 18:53:00,74.0,70.6,30.01,North,0,0.0,0.0,89,0.00,,,0.00,WUHU216HW,2013-08-22 22:53:00,
2013-08-22 18:58:00,73.3,69.8,30.01,North,0,0.0,0.0,89,0.00,,,0.00,WUHU216HW,2013-08-22 22:58:00,
2013-08-22 19:03:00,72.7,69.3,30.00,North,0,0.0,0.0,89,0.00,,,0.00,WUHU216HW,2013-08-22 23:03:00,
2013-08-22 19:08:00,72.4,69.3,30.00,North,0,0.0,0.0,90,0.00,,,0.00,WUHU216HW,2013-08-22 23:08:00,
2013-08-22 19:13:00,72.4,69.3,30.00,North,0,0.0,0.0,90,0.00,,,0.00,WUHU216HW,2013-08-22 23:13:00,
2013-08-22 19:18:00,72.2,69.4,30.00,North,0,0.0,0.0,91,0.00,,,0.00,WUHU216HW,2013-08-22 23:18:00,
2013-08-22 19:23:00,72.0,69.2,29.99,North,0,0.0,0.0,91,0.00,,,0.00,WUHU216HW,2013-08-22 23:23:00,
2013-08-22 19:28:00,72.0,69.2,29.99,North,0,0.0,0.0,91,0.00,,,0.00,WUHU216HW,2013-08-22 23:28:00,
2013-08-22 19:33:00,72.0,69.2,29.99,North,0,0.0,0.0,91,0.00,,,0.00,WUHU216HW,2013-08-22 23:33:00,
2013-08-22 19:38:00,72.4,69.6,29.99,North,0,0.0,0.0,91,0.00,,,0.00,WUHU216HW,2013-08-22 23:38:00,
2013-08-22 19:43:00,72.4,69.6,29.99,North,0,0.0,0.0,91,0.00,,,0.00,WUHU216HW,2013-08-22 23:43:00,
2013-08-22 19:48:00,72.4,69.6,29.99,North,0,0.0,0.0,91,0.00,,,0.00,WUHU216HW,2013-08-22 23:48:00,
2013-08-22 19:53:00,72.4,69.6,29.99,North,0,0.0,0.0,91,0.00,,,0.00,WUHU216HW,2013-08-22 23:53:00,
2013-08-22 19:58:00,72.4,69.6,29.99,North,0,0.0,0.0,91,0.00,,,0.00,WUHU216HW,2013-08-22 23:58:00,
2013-08-22 20:03:00,72.7,69.9,29.99,North,0,0.0,0.0,91,0.00,,,0.00,WUHU216HW,2013-08-23 00:03:00,
2013-08-22 20:08:00,73.4,71.0,29.99,North,0,0.0,0.0,92,0.00,,,0.00,WUHU216HW,2013-08-23 00:08:00,
2013-08-22 20:13:00,74.0,71.6,29.99,North,0,0.0,0.0,92,0.00,,,0.00,WUHU216HW,2013-08-23 00:13:00,
2013-08-22 20:18:00,74.3,71.6,29.99,North,0,0.0,0.0,91,0.00,,,0.00,WUHU216HW,2013-08-23 00:18:00,
2013-08-22 20:23:00,73.8,71.0,29.99,North,0,0.0,0.0,91,0.00,,,0.00,WUHU216HW,2013-08-23 00:23:00,
2013-08-22 20:28:00,73.6,70.8,29.99,North,0,0.0,0.0,91,0.00,,,0.00,WUHU216HW,2013-08-23 00:28:00,
2013-08-22 20:33:00,73.6,70.8,29.99,North,0,0.0,0.0,91,0.00,,,0.00,WUHU216HW,2013-08-23 00:33:00,
2013-08-22 20:38:00,73.6,70.8,29.99,North,0,0.0,0.0,91,0.00,,,0.00,WUHU216HW,2013-08-23 00:38:00,
2013-08-22 20:43:00,73.1,70.0,29.99,North,0,0.0,0.0,90,0.00,,,0.00,WUHU216HW,2013-08-23 00:43:00,
2013-08-22 20:48:00,72.5,69.5,29.99,North,0,0.0,0.0,90,0.00,,,0.00,WUHU216HW,2013-08-23 00:48:00,
2013-08-22 20:53:00,72.2,69.4,29.99,North,0,0.0,0.0,91,0.00,,,0.00,WUHU216HW,2013-08-23 00:53:00,
2013-08-22 20:58:00,72.4,69.6,29.99,North,0,0.0,0.0,91,0.00,,,0.00,WUHU216HW,2013-08-23 00:58:00,
2013-08-22 21:03:00,72.4,69.6,29.99,North,0,0.0,0.0,91,0.00,,,0.00,WUHU216HW,2013-08-23 01:03:00,
2013-08-22 21:08:00,72.0,69.2,30.00,North,0,0.0,0.0,91,0.00,,,0.00,WUHU216HW,2013-08-23 01:08:00,
2013-08-22 21:13:00,71.8,69.0,30.00,North,0,0.0,0.0,91,0.00,,,0.00,WUHU216HW,2013-08-23 01:13:00,
2013-08-22 21:18:00,71.6,68.9,30.00,North,0,0.0,0.0,91,0.00,,,0.00,WUHU216HW,2013-08-23 01:18:00,
2013-08-22 21:23:00,71.6,68.9,30.00,North,0,0.0,0.0,91,0.00,,,0.00,WUHU216HW,2013-08-23 01:23:00,
2013-08-22 21:28:00,71.5,68.7,30.00,North,0,0.0,0.0,91,0.00,,,0.00,WUHU216HW,2013-08-23 01:28:00,
2013-08-22 21:33:00,71.3,68.9,30.00,North,0,0.0,0.0,92,0.00,,,0.00,WUHU216HW,2013-08-23 01:33:00,
2013-08-22 21:38:00,71.3,68.9,30.00,North,0,0.0,0.0,92,0.00,,,0.00,WUHU216HW,2013-08-23 01:38:00,
2013-08-22 21:43:00,71.3,68.9,30.01,North,0,0.0,0.0,92,0.00,,,0.00,WUHU216HW,2013-08-23 01:43:00,
2013-08-22 21:48:00,71.1,68.7,30.01,North,0,0.0,0.0,92,0.00,,,0.00,WUHU216HW,2013-08-23 01:48:00,
2013-08-22 21:53:00,71.1,68.7,30.01,North,0,0.0,0.0,92,0.00,,,0.00,WUHU216HW,2013-08-23 01:53:00,
2013-08-22 21:58:00,71.3,69.1,30.01,North,0,0.0,0.0,93,0.00,,,0.00,WUHU216HW,2013-08-23 01:58:00,
2013-08-22 22:03:00,71.1,68.9,30.01,North,0,0.0,0.0,93,0.00,,,0.00,WUHU216HW,2013-08-23 02:03:00,
2013-08-22 22:08:00,71.3,69.1,30.01,North,0,0.0,0.0,93,0.00,,,0.00,WUHU216HW,2013-08-23 02:08:00,
2013-08-22 22:13:00,71.3,69.1,30.01,North,0,0.0,0.0,93,0.00,,,0.00,WUHU216HW,2013-08-23 02:13:00,
2013-08-22 22:18:00,71.3,69.1,30.01,North,0,0.0,0.0,93,0.00,,,0.00,WUHU216HW,2013-08-23 02:18:00,
2013-08-22 22:23:00,71.3,69.1,30.01,North,0,0.0,0.0,93,0.00,,,0.00,WUHU216HW,2013-08-23 02:23:00,
2013-08-22 22:28:00,71.5,69.3,30.01,North,0,0.0,0.0,93,0.00,,,0.00,WUHU216HW,2013-08-23 02:28:00,
2013-08-22 22:33:00,71.3,68.9,30.01,North,0,0.0,0.0,92,0.00,,,0.00,WUHU216HW,2013-08-23 02:33:00,
2013-08-22 22:38:00,71.1,68.7,30.01,North,0,0.0,0.0,92,0.00,,,0.00,WUHU216HW,2013-08-23 02:38:00,
2013-08-22 22:43:00,70.7,68.3,30.01,North,0,0.0,0.0,92,0.00,,,0.00,WUHU216HW,2013-08-23 02:43:00,
2013-08-22 22:48:00,70.6,68.1,30.01,North,0,0.0,0.0,92,0.00,,,0.00,WUHU216HW,2013-08-23 02:48:00,
2013-08-22 22:53:00,70.6,68.1,30.01,North,0,0.0,0.0,92,0.00,,,0.00,WUHU216HW,2013-08-23 02:53:00,
2013-08-22 23:00:00,70.7,68.6,30.01,North,0,0.0,0.0,93,0.00,,,0.00,WUHU216HW,2013-08-23 03:00:00,
2013-08-22 23:05:00,70.7,68.6,30.01,North,0,0.0,0.0,93,0.00,,,0.00,WUHU216HW,2013-08-23 03:05:00,
2013-08-22 23:10:00,70.7,68.6,30.01,North,0,0.0,0.0,93,0.00,,,0.00,WUHU216HW,2013-08-23 03:10:00,
2013-08-22 23:15:00,70.4,68.2,30.01,North,0,0.0,0.0,93,0.00,,,0.00,WUHU216HW,2013-08-23 03:15:00,
2013-08-22 23:20:00,70.6,68.4,30.01,North,0,0.0,0.0,93,0.00,,,0.00,WUHU216HW,2013-08-23 03:20:00,
2013-08-22 23:25:00,70.4,68.2,30.01,North,0,0.0,0.0,93,0.00,,,0.00,WUHU216HW,2013-08-23 03:25:00,
2013-08-22 23:30:00,70.2,68.0,30.01,North,0,0.0,0.0,93,0.00,,,0.00,WUHU216HW,2013-08-23 03:30:00,
2013-08-22 23:35:00,70.2,68.0,30.01,North,0,0.0,0.0,93,0.00,,,0.00,WUHU216HW,2013-08-23 03:35:00,
2013-08-22 23:40:00,70.4,68.2,30.01,North,0,0.0,0.0,93,0.00,,,0.00,WUHU216HW,2013-08-23 03:40:00,
2013-08-22 23:45:00,70.4,68.2,30.01,North,0,0.0,0.0,93,0.00,,,0.00,WUHU216HW,2013-08-23 03:45:00,
2013-08-22 23:50:00,70.4,68.2,30.01,North,0,0.0,0.0,93,0.00,,,0.00,WUHU216HW,2013-08-23 03:50:00,
2013-08-22 23:55:00,70.2,68.0,30.01,North,0,0.0,0.0,93,0.00,,,0.00,WUHU216HW,2013-08-23 03:55:00,